Latest Coastal Weather Observations for Sydney Airport

IDN60701

Issued at 6:11 am EDT Thursday 13 December 2018 (issued every 10 minutes, with the page automatically refreshed every 10 minutes)

About coastal observations | Map of coastal stations | Coastal observations for NSW | Marine services | Other Formats
Station Details ID: 066037 Name: SYDNEY AIRPORT AMO Lat: -33.95 Lon: 151.17 Height: 6.0 m
Data from the previous 72 hours. | See also: Recent months at Sydney Airport
Date/Time
EDT
Wind Sea
Height
m
Swell Vis
km
Cloud Weather Temp
°C
Press
hPa
Rain since
9am
mm
Dir  Spd
kts
Gust
kts
Height
m
Period
s
Dir
13/06:00am NNE 15 19 - - - - 18 Mostly cloudy Rain 21.4 1004.0 0.2
13/05:30am NE 9 13 - - - - 10 Mostly clear - 21.2 1003.9 0.2
13/05:00am NE 8 10 - - - - 10 Mostly clear - 20.6 1004.5 0.2
13/04:30am NE 7 8 - - - - 10 Mostly clear - 20.9 1005.5 0.2
13/04:00am N 8 10 - - - - 10 Partly cloudy - 21.3 1006.6 -
13/03:30am N 7 10 - - - - 10 Partly cloudy Showers 21.5 1006.7 -
13/03:19am N 8 10 - - - - 10 Partly cloudy Showers 21.5 1007.2 -
13/03:00am NNE 10 14 - - - - 15 Cloudy Showers 21.7 1007.1 0.1
13/02:57am NNE 10 13 - - - - 10 Partly cloudy Showers 21.5 1007.1 -
13/02:30am NNE 8 11 - - - - 10 Mostly clear - 21.7 1007.4 0.0
13/02:00am NE 9 13 - - - - 10 Partly cloudy - 22.0 1007.5 0.0
13/01:30am NNE 9 11 - - - - 10 Partly cloudy - 21.6 1007.9 0.0
13/01:00am NNE 11 16 - - - - 10 Partly cloudy - 21.5 1008.1 0.0
13/12:30am NE 11 15 - - - - 10 Partly cloudy - 22.0 1008.8 0.0
13/12:00am NNE 13 17 - - - - 25 Cloudy Fine 22.3 1009.3 0.0
 
Date/Time
EDT
Wind Sea
Height
m
Swell Vis
km
Cloud Weather Temp
°C
Press
hPa
Rain since
9am
mm
Dir  Spd
kts
Gust
kts
Height
m
Period
s
Dir
12/11:36pm NE 14 18 - - - - 10 Partly cloudy - 22.0 1009.7 0.0
12/11:30pm NE 14 18 - - - - 10 Partly cloudy - 22.1 1009.6 0.0
12/11:00pm NE 13 17 - - - - 10 Mostly clear - 22.5 1010.0 0.0
12/10:30pm NE 14 17 - - - - 10 Mostly clear - 22.0 1010.4 0.0
12/10:00pm NE 16 21 - - - - 10 Mostly clear - 22.2 1010.5 0.0
12/09:30pm NE 16 21 - - - - 10 Mostly clear - 22.1 1010.4 0.0
12/09:00pm NE 15 20 - - - - 30 Cloudy Fine 22.2 1010.2 0.0
12/08:30pm NE 13 16 - - - - 10 Mostly clear - 22.6 1010.5 0.0
12/08:00pm NE 13 16 - - - - 10 Mostly clear - 22.6 1010.7 0.0
12/07:30pm NE 13 16 - - - - 10 Mostly clear - 22.2 1011.0 0.0
12/07:00pm NNE 12 16 - - - - 10 Mostly clear - 22.7 1011.2 0.0
12/06:30pm NE 10 13 - - - - 10 Mostly clear - 22.5 1011.3 0.0
12/06:00pm NNE 15 19 - - - - 25 Cloudy Distant precip. 22.7 1011.1 0.0
12/05:30pm NNE 16 20 - - - - 10 Mostly clear - 23.3 1011.3 0.0
12/05:00pm NE 16 20 - - - - 10 Mostly clear - 23.3 1011.5 0.0
12/04:30pm NE 15 20 - - - - 10 Mostly clear - 22.4 1011.8 0.0
12/04:00pm NE 16 20 - - - - 10 Partly cloudy - 22.9 1012.3 0.0
12/03:30pm NE 17 21 - - - - 10 Mostly clear - 24.4 1012.7 0.0
12/03:00pm NE 15 20 - - - - 30 Mostly cloudy Fine 23.4 1012.9 0.0
12/02:30pm ENE 14 17 - - - - 10 Partly cloudy - 23.3 1013.5 0.0
12/02:00pm ENE 13 16 - - - - 10 Partly cloudy - 22.8 1013.8 0.0
12/01:30pm NE 13 18 - - - - 10 Mostly clear - 23.1 1014.0 0.0
12/01:00pm NE 14 19 - - - - 10 Partly cloudy - 23.6 1014.1 0.0
12/12:30pm ENE 12 18 - - - - 10 Mostly clear - 23.4 1014.8 0.0
12/12:00pm NE 11 16 - - - - 30 Mostly cloudy Distant precip. 23.2 1015.4 0.0
12/11:30am NE 11 15 - - - - 10 Mostly clear - 23.1 1015.7 0.0
12/11:00am NE 12 16 - - - - 10 Mostly clear - 22.1 1015.7 0.0
12/10:30am ENE 11 14 - - - - 10 Mostly clear - 21.1 1016.0 0.0
12/10:00am ENE 14 20 - - - - 9 Mostly clear - 20.4 1016.1 0.0
12/09:56am E 10 17 - - - - 6 Mostly clear Showers 20.7 1016.1 0.0
12/09:30am E 9 15 - - - - 10 Mostly clear - 21.7 1016.2 0.0
12/09:00am E 10 14 - - - - 22 Cloudy Drizzle 21.8 1016.6 0.0
12/08:30am ESE 7 10 - - - - 10 Mostly clear - 21.6 1016.6 0.0
12/08:00am ESE 7 9 - - - - 10 Mostly clear - 21.2 1016.6 0.0
12/07:30am SSE 5 6 - - - - 10 Mostly clear - 20.6 1016.4 0.0
12/07:00am S 4 5 - - - - 10 Mostly clear - 20.4 1016.2 0.0
12/06:30am S 5 6 - - - - 10 Mostly clear - 20.0 1016.0 0.0
12/06:00am S 6 6 - - - - 30 Mostly cloudy Fine 19.7 1016.0 0.0
12/05:30am SSE 6 7 - - - - 10 Partly cloudy - 19.6 1015.8 0.0
12/05:00am S 6 7 - - - - 10 Mostly clear - 19.4 1015.6 0.0
12/04:30am SSW 7 8 - - - - 10 Mostly clear - 20.0 1015.7 0.0
12/04:00am S 6 7 - - - - 10 Mostly clear - 19.5 1015.9 0.0
12/03:30am S 6 7 - - - - 10 Mostly clear - 19.7 1016.1 0.0
12/03:00am S 7 7 - - - - 30 Mostly cloudy Fine 19.9 1016.4 0.0
12/02:30am SSE 5 6 - - - - 10 Mostly clear - 20.4 1016.5 0.0
12/02:00am ESE 5 6 - - - - 10 Mostly clear - 20.4 1016.6 0.0
12/01:30am SE 5 6 - - - - 10 Mostly clear - 20.5 1017.0 0.0
12/01:00am SE 6 7 - - - - 10 Mostly clear - 20.3 1017.1 0.0
12/12:30am SE 6 7 - - - - 10 Mostly clear - 20.4 1017.7 0.0
12/12:00am E 5 6 - - - - 30 Mostly cloudy Fine 20.4 1017.8 0.0
 
Date/Time
EDT
Wind Sea
Height
m
Swell Vis
km
Cloud Weather Temp
°C
Press
hPa
Rain since
9am
mm
Dir  Spd
kts
Gust
kts
Height
m
Period
s
Dir
11/11:30pm ESE 6 6 - - - - 10 Mostly clear - 20.7 1018.1 0.0
11/11:00pm E 5 6 - - - - 10 Partly cloudy - 20.7 1018.5 0.0
11/10:30pm E 7 8 - - - - 10 Mostly clear - 20.7 1018.0 0.0
11/10:00pm ESE 7 9 - - - - 10 Mostly clear - 20.7 1017.8 0.0
11/09:30pm SE 7 9 - - - - 10 Mostly clear - 20.4 1017.8 0.0
11/09:00pm SSE 7 8 - - - - 30 Mostly cloudy Fine 20.2 1018.3 0.0
11/08:30pm SSE 7 9 - - - - 10 Mostly clear - 20.7 1018.2 0.0
11/08:00pm SE 7 8 - - - - 10 Mostly clear - 20.5 1018.0 0.0
11/07:30pm SE 6 8 - - - - 10 Mostly clear - 21.0 1017.8 0.0
11/07:00pm SE 6 7 - - - - 10 Mostly clear - 20.9 1017.6 0.0
11/06:30pm SE 7 9 - - - - 10 Mostly clear - 21.4 1017.4 0.0
11/06:00pm SSE 7 9 - - - - 30 Cloudy Fine 20.9 1017.5 0.0
11/05:30pm SE 8 10 - - - - 10 Mostly clear - 21.2 1017.4 0.0
11/05:00pm SE 7 9 - - - - 10 Partly cloudy - 21.1 1017.6 0.0
11/04:30pm SE 8 10 - - - - 10 Mostly clear - 21.2 1017.7 0.0
11/04:00pm SE 8 10 - - - - 10 Mostly clear - 21.2 1018.1 0.0
11/03:30pm ESE 8 9 - - - - 10 Mostly clear - 21.3 1018.1 0.0
11/03:00pm S 7 9 - - - - 25 Cloudy Fine 20.9 1018.5 0.0
11/02:30pm S 8 10 - - - - 10 Partly cloudy - 20.8 1018.8 0.0
11/02:00pm S 9 11 - - - - 10 Partly cloudy - 21.1 1018.7 0.0
11/01:30pm S 10 14 - - - - 10 Partly cloudy - 20.8 1019.1 0.0
11/01:00pm S 10 13 - - - - 10 Mostly clear - 21.2 1019.3 0.0
11/12:30pm S 11 15 - - - - 10 Mostly clear - 20.9 1019.3 0.0
11/12:00pm S 11 16 - - - - 25 Mostly cloudy Fine 21.5 1019.4 0.0
11/11:30am S 11 13 - - - - 10 Partly cloudy - 21.4 1019.4 0.0
11/11:00am S 11 16 - - - - 10 Mostly clear - 21.7 1019.4 0.0
11/10:30am S 10 14 - - - - 10 Mostly clear - 21.9 1019.6 0.0
11/10:00am S 9 12 - - - - 10 Mostly clear - 21.7 1019.7 0.0
11/09:30am S 10 13 - - - - 10 Mostly clear - 21.7 1019.5 0.0
11/09:00am S 10 11 - - - - 25 Mostly cloudy Fine 21.1 1019.5 0.0
11/08:30am SSE 9 12 - - - - 10 Mostly clear - 20.8 1019.5 0.0
11/08:00am SSE 10 12 - - - - 10 Mostly clear - 20.6 1019.1 0.0
11/07:30am S 9 12 - - - - 10 Mostly clear - 20.4 1019.0 0.0
11/07:00am SSE 10 12 - - - - 10 Mostly clear - 20.6 1018.5 0.0
11/06:30am S 9 11 - - - - 10 Mostly clear - 20.4 1018.3 0.0
11/06:00am SSE 10 14 - - - - 25 Mostly cloudy Fine 20.2 1018.0 0.0
11/05:30am SSE 10 14 - - - - 10 Mostly clear - 20.2 1017.6 0.0
11/05:00am SSE 11 15 - - - - 10 Mostly clear - 20.2 1017.6 0.0
11/04:30am SSE 13 16 - - - - 10 Mostly clear - 20.6 1017.0 0.0
11/04:00am SSE 12 15 - - - - 10 Mostly clear - 20.4 1017.2 0.0
11/03:30am S 9 13 - - - - 10 Mostly clear - 20.6 1017.5 0.0
11/03:00am S 9 12 - - - - 25 Mostly cloudy Fine 20.6 1017.6 0.0
11/02:30am SSE 10 12 - - - - 10 Mostly clear - 20.6 1017.5 0.0
11/02:00am S 10 13 - - - - 10 Mostly clear - 20.6 1017.9 0.0
11/01:30am S 9 13 - - - - 10 Mostly clear - 20.6 1018.1 0.0
11/01:00am S 11 14 - - - - 10 Mostly clear - 20.8 1018.0 0.0
11/12:30am SSE 10 12 - - - - 10 Mostly clear - 20.7 1018.1 0.0
11/12:00am S 11 14 - - - - 20 Mostly cloudy Haze 20.9 1018.3 0.0
 
Date/Time
EDT
Wind Sea
Height
m
Swell Vis
km
Cloud Weather Temp
°C
Press
hPa
Rain since
9am
mm
Dir  Spd
kts
Gust
kts
Height
m
Period
s
Dir
10/11:30pm SSE 13 16 - - - - 10 Mostly clear - 20.9 1018.1 0.0
10/11:00pm S 13 17 - - - - 10 Mostly clear - 20.9 1018.6 0.0
10/10:30pm S 15 21 - - - - 10 Mostly clear - 21.1 1018.6 0.0
10/10:00pm S 15 19 - - - - 10 Mostly clear - 21.0 1018.3 0.0
10/09:30pm S 14 18 - - - - 10 Mostly clear - 21.0 1018.1 0.0
10/09:00pm SSE 15 18 - - - - 15 Mostly cloudy Haze 21.2 1017.2 0.0
10/08:38pm S 18 22 - - - - 10 Mostly cloudy - 21.2 1017.1 0.0
10/08:30pm S 20 25 - - - - 10 Partly cloudy - 21.3 1017.0 0.0
10/08:00pm SSW 19 24 - - - - 10 Mostly clear - 21.6 1016.5 0.0
10/07:30pm SSW 17 20 - - - - 10 Mostly clear - 22.0 1015.9 0.0
10/07:00pm S 18 22 - - - - 10 Mostly clear - 22.1 1015.5 0.0
10/06:30pm S 17 22 - - - - 10 Mostly clear - 22.3 1014.8 0.0
10/06:24pm S 15 22 - - - - 10 Mostly clear - 22.5 1014.6 0.0
10/06:00pm SSE 8 12 - - - - 20 Cloudy Distant precip. 23.3 1014.3 0.0
10/05:30pm ENE 4 5 - - - - 10 - - 25.8 1013.7 0.0
10/05:00pm E 5 6 - - - - 10 - - 25.9 1013.6 0.0
10/04:30pm E 7 8 - - - - 10 - - 26.1 1013.5 0.0
10/04:00pm ENE 7 9 - - - - 10 Mostly clear - 25.4 1013.5 0.0
10/03:30pm NNE 9 12 - - - - 10 Mostly clear Showers 26.2 1013.7 0.0
10/03:00pm NNE 10 14 - - - - 13 Cloudy Rain 25.5 1014.0 0.0
10/02:30pm ENE 11 14 - - - - 10 Mostly clear Drizzle 25.8 1013.9 0.0
10/02:00pm SE 4 6 - - - - 10 Mostly clear - 25.3 1014.8 0.0
10/01:30pm SSE 5 8 - - - - 10 Mostly clear - 26.0 1015.4 0.0
10/01:00pm NW 3 6 - - - - 10 Mostly clear - 27.1 1015.3 0.0
10/12:30pm NNE 6 9 - - - - 10 Mostly clear - 27.1 1015.3 0.0
10/12:00pm NNE 9 13 - - - - 20 Mostly cloudy Haze 26.4 1015.2 0.0
10/11:30am NE 7 9 - - - - 10 Mostly clear - 25.6 1015.6 0.0
10/11:00am ENE 9 12 - - - - 10 Mostly clear - 25.3 1015.8 0.0
10/10:30am NE 10 14 - - - - 10 Mostly clear - 25.5 1015.9 0.0
10/10:00am E 12 16 - - - - 10 Mostly clear - 25.0 1015.7 0.0
10/09:30am ESE 12 15 - - - - 10 Mostly clear - 24.0 1016.2 0.0
10/09:00am SSE 11 14 - - - - 0 Mostly cloudy Haze 23.3 1016.7 0.0
10/08:30am S 13 16 - - - - 10 Mostly clear - 22.4 1016.6 0.0
10/08:00am S 13 16 - - - - 10 Mostly clear - 21.8 1016.7 0.0
10/07:30am S 15 17 - - - - 10 Partly cloudy - 21.7 1016.5 0.0
10/07:00am S 12 15 - - - - 10 Mostly cloudy - 21.2 1015.9 0.0
10/06:30am S 9 10 - - - - 10 Mostly cloudy - 21.0 1015.3 0.0

Other Formats:

Comma delimited format used in spreadsheet applications
http://www.bom.gov.au/fwo/IDN60701/IDN60701.94767.axf

JavaScript Object Notation format (JSON) in row-major order
http://www.bom.gov.au/fwo/IDN60701/IDN60701.94767.json